Time;durP1;ratioP1;P1;durP2;ratioP2;P2;SDS_P1;SDS_P2;PMS_P1;PMS_P2;Temp;Humidity;BMP_temperature;BMP_pressure;BME280_temperature;BME280_humidity;BME280_pressure;Samples;Min_cycle;Max_cycle;Signal;HPM_P1;HPM_P2
2022/11/23 00:01:32;;;;;;;7.03;4.35;;;7.60;99.90;;;;;;5077210;28;20048;-80
2022/11/23 00:04:01;;;;;;;7.75;4.50;;;7.40;99.90;;;;;;5077003;28;20127;-80
2022/11/23 00:06:27;;;;;;;9.48;4.32;;;7.40;99.90;;;;;;5076773;28;20055;-80
2022/11/23 00:08:53;;;;;;;6.20;3.78;;;7.40;99.90;;;;;;5060579;28;20040;-80
2022/11/23 00:11:21;;;;;;;7.78;4.35;;;7.40;99.90;;;;;;5057789;28;20036;-83
2022/11/23 00:13:47;;;;;;;6.03;4.28;;;7.40;99.90;;;;;;5074442;28;20040;-83
2022/11/23 00:16:32;;;;;;;7.57;4.35;;;8.00;99.90;;;;;;5057777;28;20035;-83
2022/11/23 00:19:00;;;;;;;6.20;4.00;;;7.50;99.90;;;;;;5073884;28;20055;-83
2022/11/23 00:21:28;;;;;;;10.73;4.38;;;7.50;99.90;;;;;;5077768;28;20309;-83
2022/11/23 00:23:54;;;;;;;6.88;4.40;;;7.50;99.90;;;;;;5074432;28;20550;-83
2022/11/23 00:26:20;;;;;;;11.30;4.72;;;7.50;99.90;;;;;;5077474;28;20075;-79
2022/11/23 00:28:46;;;;;;;10.52;4.80;;;7.50;99.90;;;;;;5076698;28;20036;-78
2022/11/23 00:31:14;;;;;;;7.63;5.07;;;7.50;99.90;;;;;;5076238;28;20047;-78
2022/11/23 00:33:40;;;;;;;10.07;4.28;;;7.50;99.90;;;;;;5059535;28;20046;-78
2022/11/23 00:36:10;;;;;;;8.00;3.83;;;7.60;99.90;;;;;;5059942;28;20140;-78
2022/11/23 00:38:37;;;;;;;7.20;4.03;;;7.60;99.90;;;;;;5076415;28;20040;-78
2022/11/23 00:41:05;;;;;;;8.80;3.78;;;7.70;99.90;;;;;;5076937;28;20051;-78
2022/11/23 00:43:32;;;;;;;9.48;4.50;;;7.60;99.90;;;;;;5075865;28;20078;-78
2022/11/23 00:46:14;;;;;;;10.38;5.20;;;7.60;99.90;;;;;;5076464;28;20082;-78
2022/11/23 00:48:40;;;;;;;8.60;4.20;;;7.60;99.90;;;;;;5075864;28;20044;-78
2022/11/23 00:51:07;;;;;;;8.98;4.53;;;7.70;99.90;;;;;;5075750;28;20039;-78
2022/11/23 00:53:34;;;;;;;9.63;4.45;;;7.90;99.90;;;;;;5075352;28;20044;-78
2022/11/23 00:56:00;;;;;;;7.32;4.22;;;7.70;99.90;;;;;;5075652;28;20044;-78
2022/11/23 00:58:25;;;;;;;8.52;4.43;;;7.90;99.90;;;;;;5075659;28;20036;-78
2022/11/23 01:01:00;;;;;;;9.23;4.28;;;7.60;99.90;;;;;;5076045;28;20068;-79
2022/11/23 01:03:26;;;;;;;8.00;4.30;;;7.70;99.90;;;;;;5058811;28;20531;-79
2022/11/23 01:05:52;;;;;;;9.15;4.70;;;8.30;99.90;;;;;;5075817;28;20396;-79
2022/11/23 01:08:18;;;;;;;7.45;3.67;;;7.60;99.90;;;;;;5076555;28;20050;-79
2022/11/23 01:10:43;;;;;;;7.28;4.20;;;7.60;99.90;;;;;;5042544;28;20465;-79
2022/11/23 01:13:09;;;;;;;7.18;3.95;;;7.60;99.90;;;;;;5075983;28;20051;-79
2022/11/23 01:15:35;;;;;;;6.53;4.15;;;7.70;99.90;;;;;;5075959;28;20040;-79
2022/11/23 01:18:00;;;;;;;10.40;4.80;;;7.70;99.90;;;;;;5059201;28;20036;-78
2022/11/23 01:20:26;;;;;;;9.07;5.03;;;7.70;99.90;;;;;;5059215;28;20044;-78
2022/11/23 01:22:52;;;;;;;7.68;4.00;;;7.70;99.90;;;;;;5075930;28;20075;-78
2022/11/23 01:25:18;;;;;;;11.75;5.20;;;7.70;99.90;;;;;;5058310;28;21576;-78
2022/11/23 01:27:43;;;;;;;9.32;4.25;;;7.70;99.90;;;;;;5074310;28;20501;-78
2022/11/23 01:30:10;;;;;;;10.45;4.60;;;7.70;99.90;;;;;;5075288;28;20044;-78
2022/11/23 01:32:35;;;;;;;10.50;4.68;;;7.70;99.90;;;;;;5075394;28;20036;-78
2022/11/23 01:35:01;;;;;;;11.13;4.28;;;7.70;99.90;;;;;;5071970;28;20036;-77
2022/11/23 01:37:27;;;;;;;8.95;4.38;;;7.70;99.90;;;;;;5042413;28;20131;-77
2022/11/23 01:39:52;;;;;;;6.43;4.05;;;7.70;99.90;;;;;;5059052;28;20035;-77
2022/11/23 01:42:18;;;;;;;9.25;4.38;;;7.80;99.90;;;;;;5074986;28;20036;-77
2022/11/23 01:44:44;;;;;;;7.97;4.50;;;7.70;99.90;;;;;;5075852;28;20040;-77
2022/11/23 01:47:09;;;;;;;9.02;4.30;;;8.00;99.90;;;;;;5058648;28;20047;-77
2022/11/23 01:49:42;;;;;;;11.85;5.15;;;7.80;99.90;;;;;;5075347;28;20541;-78
2022/11/23 01:52:13;;;;;;;6.80;4.40;;;7.80;99.90;;;;;;5056713;28;20483;-78
2022/11/23 01:54:55;;;;;;;9.38;4.97;;;7.80;99.90;;;;;;5074618;28;20071;-78
2022/11/23 01:57:27;;;;;;;8.52;4.30;;;7.80;99.90;;;;;;5074322;28;20046;-78
2022/11/23 01:59:55;;;;;;;9.45;4.47;;;7.70;99.90;;;;;;5074924;28;20453;-78
2022/11/23 02:02:21;;;;;;;9.63;4.38;;;7.80;99.90;;;;;;5071563;28;20123;-78
2022/11/23 02:04:50;;;;;;;13.10;5.20;;;7.90;99.90;;;;;;5074439;28;20139;-78
2022/11/23 02:07:18;;;;;;;9.27;4.93;;;7.80;99.90;;;;;;5074380;28;20492;-79
2022/11/23 02:09:45;;;;;;;11.00;5.60;;;7.80;99.90;;;;;;5073390;28;20097;-79
2022/11/23 02:12:12;;;;;;;9.00;4.68;;;7.80;99.90;;;;;;5061244;28;20044;-79
2022/11/23 02:14:38;;;;;;;9.80;5.00;;;7.80;99.90;;;;;;5057879;28;20047;-79
2022/11/23 02:17:04;;;;;;;8.73;4.43;;;7.90;99.90;;;;;;5074196;28;20036;-79
2022/11/23 02:19:58;;;;;;;11.60;4.82;;;7.80;99.90;;;;;;5071314;28;20050;-79
2022/11/23 02:22:56;;;;;;;13.40;5.47;;;7.80;99.90;;;;;;5052259;28;20083;-79
2022/11/23 02:25:47;;;;;;;9.55;5.20;;;7.90;99.90;;;;;;5071592;28;20094;-77
2022/11/23 02:28:25;;;;;;;10.32;5.20;;;8.60;99.90;;;;;;5068456;28;20040;-77
2022/11/23 02:30:53;;;;;;;10.38;5.18;;;7.90;99.90;;;;;;5064207;28;20037;-77
2022/11/23 02:33:19;;;;;;;10.07;5.07;;;7.90;99.90;;;;;;5069002;28;20487;-77
2022/11/23 02:35:50;;;;;;;9.10;5.30;;;7.90;99.90;;;;;;5056713;28;20043;-77
2022/11/23 02:38:17;;;;;;;11.93;5.70;;;7.90;99.90;;;;;;5060767;28;20858;-77
2022/11/23 02:40:44;;;;;;;12.13;5.93;;;7.90;99.90;;;;;;5071570;28;20124;-78
2022/11/23 02:43:09;;;;;;;13.15;5.15;;;7.90;99.90;;;;;;5057470;28;20063;-78
2022/11/23 02:45:46;;;;;;;11.55;5.78;;;7.90;99.90;;;;;;5076258;28;20126;-78
2022/11/23 02:48:12;;;;;;;15.13;6.40;;;7.90;99.90;;;;;;5071221;28;20036;-78
2022/11/23 02:50:38;;;;;;;14.20;6.05;;;7.90;99.90;;;;;;5055466;28;20487;-78
2022/11/23 02:53:03;;;;;;;10.82;5.38;;;8.30;99.90;;;;;;5056215;28;20036;-78
2022/11/23 02:55:29;;;;;;;14.60;5.93;;;8.80;99.90;;;;;;5061076;28;20048;-78
2022/11/23 02:57:55;;;;;;;12.70;6.13;;;7.80;99.90;;;;;;5081896;28;20032;-83
2022/11/23 03:00:20;;;;;;;14.40;5.93;;;7.80;99.90;;;;;;5094412;28;20123;-83
2022/11/23 03:02:46;;;;;;;12.45;5.38;;;7.80;99.90;;;;;;5079550;28;20446;-83
2022/11/23 03:05:12;;;;;;;12.50;5.13;;;7.70;99.90;;;;;;5076615;28;20056;-83
2022/11/23 03:07:37;;;;;;;11.40;6.32;;;7.70;99.90;;;;;;5082260;28;20093;-83
2022/11/23 03:10:04;;;;;;;11.75;5.75;;;7.70;99.90;;;;;;5070028;28;20072;-83
2022/11/23 03:12:30;;;;;;;13.85;6.65;;;8.80;99.90;;;;;;5075335;28;20404;-83
2022/11/23 03:14:55;;;;;;;14.50;6.85;;;7.70;99.90;;;;;;5083671;28;20035;-79
2022/11/23 03:17:21;;;;;;;12.90;7.20;;;7.70;99.90;;;;;;5084059;28;20043;-79
2022/11/23 03:19:47;;;;;;;14.50;6.50;;;7.90;99.90;;;;;;5086452;28;20047;-79
2022/11/23 03:22:13;;;;;;;16.45;6.70;;;7.70;99.90;;;;;;5086105;28;20484;-78
2022/11/23 03:24:38;;;;;;;13.30;6.75;;;7.70;99.90;;;;;;5083717;28;20431;-78
2022/11/23 03:27:04;;;;;;;20.02;7.78;;;7.80;99.90;;;;;;5052592;28;20040;-78
2022/11/23 03:29:30;;;;;;;15.88;6.85;;;7.60;99.90;;;;;;5084396;28;20052;-83
2022/11/23 03:31:55;;;;;;;11.82;5.80;;;7.60;99.90;;;;;;5062909;28;20097;-83
2022/11/23 03:34:22;;;;;;;14.80;6.28;;;7.50;99.90;;;;;;5079245;28;20391;-83
2022/11/23 03:36:48;;;;;;;15.45;7.20;;;7.50;99.90;;;;;;5084105;28;20044;-83
2022/11/23 03:39:13;;;;;;;14.52;6.68;;;7.50;99.90;;;;;;5053109;28;20028;-83
2022/11/23 03:41:39;;;;;;;15.80;6.88;;;7.40;99.90;;;;;;5064981;28;20188;-83
2022/11/23 03:44:05;;;;;;;19.52;8.30;;;7.40;99.90;;;;;;5062116;28;20372;-83
2022/11/23 03:46:31;;;;;;;12.55;6.75;;;7.40;99.90;;;;;;5061663;28;20402;-83
2022/11/23 03:48:56;;;;;;;15.45;7.00;;;7.40;99.90;;;;;;5062117;28;20044;-83
2022/11/23 03:51:22;;;;;;;14.80;7.38;;;7.40;99.90;;;;;;5081866;28;20562;-83
2022/11/23 03:53:48;;;;;;;18.38;7.78;;;7.40;99.90;;;;;;5088149;28;20040;-83
2022/11/23 03:56:14;;;;;;;15.43;6.85;;;7.60;99.90;;;;;;5078132;28;20054;-83
2022/11/23 03:58:40;;;;;;;13.25;7.70;;;7.40;99.90;;;;;;5078491;28;20373;-83
2022/11/23 04:01:06;;;;;;;15.18;6.60;;;7.70;99.90;;;;;;5095241;28;20036;-83
2022/11/23 04:03:32;;;;;;;16.20;7.38;;;7.40;99.90;;;;;;5065685;28;20048;-80
2022/11/23 04:05:59;;;;;;;14.95;7.70;;;7.40;99.90;;;;;;5080701;28;20048;-80
2022/11/23 04:08:25;;;;;;;18.67;8.23;;;7.60;99.90;;;;;;5068840;28;20526;-80
2022/11/23 04:10:50;;;;;;;19.88;8.85;;;7.50;99.90;;;;;;5068674;28;20036;-80
2022/11/23 04:13:16;;;;;;;15.05;7.13;;;7.50;99.90;;;;;;5085967;28;20040;-80
2022/11/23 04:15:42;;;;;;;15.75;7.65;;;7.50;99.90;;;;;;5083983;28;20383;-80
2022/11/23 04:18:08;;;;;;;15.80;8.05;;;7.50;99.90;;;;;;5067193;28;20064;-80
2022/11/23 04:20:33;;;;;;;15.23;7.63;;;7.50;99.90;;;;;;5070699;28;20032;-79
2022/11/23 04:22:59;;;;;;;16.55;8.30;;;7.40;99.90;;;;;;5084939;28;20036;-79
2022/11/23 04:25:25;;;;;;;18.75;7.75;;;7.40;99.90;;;;;;5068114;28;20036;-79
2022/11/23 04:27:50;;;;;;;20.98;8.68;;;7.40;99.90;;;;;;5084407;28;20032;-78
2022/11/23 04:30:16;;;;;;;20.50;9.02;;;7.40;99.90;;;;;;5081281;28;20487;-79
2022/11/23 04:32:45;;;;;;;17.73;8.73;;;7.40;99.90;;;;;;5083316;28;20385;-79
2022/11/23 04:35:11;;;;;;;16.05;8.30;;;7.40;99.90;;;;;;5067441;28;20047;-79
2022/11/23 04:37:36;;;;;;;17.10;9.07;;;7.40;99.90;;;;;;5082096;28;20127;-77
2022/11/23 04:40:03;;;;;;;18.73;8.48;;;7.30;99.90;;;;;;5068608;28;20591;-77
2022/11/23 04:42:28;;;;;;;18.38;9.57;;;7.30;99.90;;;;;;5067897;28;20028;-77
2022/11/23 04:44:56;;;;;;;20.10;9.32;;;8.30;99.90;;;;;;5079444;28;20479;-77
2022/11/23 04:47:25;;;;;;;24.48;9.57;;;7.40;99.90;;;;;;5087869;28;20063;-77
2022/11/23 04:49:50;;;;;;;22.33;9.98;;;7.40;99.90;;;;;;5067912;28;20054;-77
2022/11/23 04:52:17;;;;;;;24.23;10.95;;;7.40;99.90;;;;;;5084912;28;20079;-77
2022/11/23 04:54:42;;;;;;;22.05;10.20;;;8.80;99.90;;;;;;5069388;28;20125;-79
2022/11/23 04:57:09;;;;;;;20.38;9.38;;;7.40;99.90;;;;;;5048493;28;20060;-80
2022/11/23 04:59:34;;;;;;;20.17;9.73;;;7.50;99.90;;;;;;5067655;28;20068;-80
2022/11/23 05:02:00;;;;;;;19.83;10.13;;;7.70;99.90;;;;;;5085773;28;20090;-80
2022/11/23 05:04:26;;;;;;;20.15;10.15;;;7.50;99.90;;;;;;5067218;28;20109;-80
2022/11/23 05:06:52;;;;;;;25.05;10.40;;;7.40;99.90;;;;;;5083905;28;20040;-80
2022/11/23 05:09:17;;;;;;;20.60;10.15;;;7.70;99.90;;;;;;5050203;28;20151;-80
2022/11/23 05:11:43;;;;;;;25.65;11.15;;;7.50;99.90;;;;;;5083191;28;20036;-78
2022/11/23 05:14:09;;;;;;;22.70;9.65;;;7.40;99.90;;;;;;5067341;28;20047;-78
2022/11/23 05:16:35;;;;;;;20.00;11.07;;;7.50;99.90;;;;;;5080752;28;20093;-78
2022/11/23 05:19:01;;;;;;;18.90;9.73;;;7.40;99.90;;;;;;5083929;28;20414;-78
2022/11/23 05:21:26;;;;;;;24.50;10.77;;;7.50;99.90;;;;;;5082207;28;20052;-78
2022/11/23 05:23:52;;;;;;;22.65;10.05;;;7.50;99.90;;;;;;5074969;28;20151;-79
2022/11/23 05:26:18;;;;;;;18.27;9.55;;;7.50;99.90;;;;;;5057716;28;20040;-83
2022/11/23 05:28:44;;;;;;;18.90;9.52;;;7.40;99.90;;;;;;5059944;28;20048;-83
2022/11/23 05:31:10;;;;;;;21.50;10.02;;;7.40;99.90;;;;;;5073558;28;20089;-83
2022/11/23 05:33:36;;;;;;;19.23;9.85;;;7.40;99.90;;;;;;5059908;28;20511;-83
2022/11/23 05:36:01;;;;;;;26.77;10.80;;;7.40;99.90;;;;;;5076723;28;20040;-83
2022/11/23 05:38:27;;;;;;;21.23;9.93;;;7.40;99.90;;;;;;5059562;28;20418;-83
2022/11/23 05:40:53;;;;;;;22.67;10.68;;;7.60;99.90;;;;;;5059770;28;20129;-83
2022/11/23 05:43:18;;;;;;;19.30;9.88;;;7.50;99.90;;;;;;5042683;28;20059;-78
2022/11/23 05:45:44;;;;;;;19.38;10.05;;;7.50;99.90;;;;;;5074517;28;20380;-78
2022/11/23 05:48:10;;;;;;;23.95;10.85;;;7.50;99.90;;;;;;5072269;28;20040;-78
2022/11/23 05:50:36;;;;;;;23.17;9.82;;;7.50;99.90;;;;;;5074626;28;20050;-78
2022/11/23 05:53:01;;;;;;;25.05;11.60;;;7.50;99.90;;;;;;5074103;28;20040;-78
2022/11/23 05:55:27;;;;;;;20.40;10.32;;;7.60;99.90;;;;;;5057947;28;20054;-78
2022/11/23 05:57:53;;;;;;;22.08;10.02;;;7.50;99.90;;;;;;5039993;28;20033;-78
2022/11/23 06:00:19;;;;;;;18.48;9.13;;;7.50;99.90;;;;;;5075145;28;20036;-77
2022/11/23 06:02:45;;;;;;;18.05;9.18;;;7.50;99.90;;;;;;5071717;28;20048;-77
2022/11/23 06:05:11;;;;;;;21.30;9.70;;;7.50;99.90;;;;;;5074796;28;20052;-77
2022/11/23 06:07:37;;;;;;;20.45;9.98;;;7.90;99.90;;;;;;5075132;28;20419;-77
2022/11/23 06:10:04;;;;;;;20.35;8.73;;;7.50;99.90;;;;;;5058749;28;20044;-77
2022/11/23 06:12:31;;;;;;;21.10;9.70;;;7.50;99.90;;;;;;5074902;28;20503;-77
2022/11/23 06:14:56;;;;;;;18.73;9.25;;;7.50;99.90;;;;;;5074460;28;20137;-79
2022/11/23 06:17:22;;;;;;;16.55;7.95;;;7.50;99.90;;;;;;5057962;28;20139;-81
2022/11/23 06:19:48;;;;;;;24.90;10.48;;;7.50;99.90;;;;;;5074304;28;20040;-81
2022/11/23 06:22:14;;;;;;;21.52;9.38;;;7.40;99.90;;;;;;5074610;28;20115;-82
2022/11/23 06:24:41;;;;;;;16.23;8.13;;;7.40;99.90;;;;;;5071225;28;20041;-82
2022/11/23 06:27:06;;;;;;;17.48;8.52;;;7.40;99.90;;;;;;5074208;28;20039;-82
2022/11/23 06:29:32;;;;;;;16.05;8.32;;;7.40;99.90;;;;;;5073959;28;20059;-82
2022/11/23 06:31:58;;;;;;;19.02;10.25;;;7.30;99.90;;;;;;5069070;28;20042;-82
2022/11/23 06:34:23;;;;;;;14.77;7.93;;;8.00;99.90;;;;;;5072266;28;20043;-85
2022/11/23 06:36:49;;;;;;;18.38;8.05;;;7.30;99.90;;;;;;5059002;28;20105;-85
2022/11/23 06:39:15;;;;;;;19.05;8.25;;;7.30;99.90;;;;;;5058823;28;20122;-85
2022/11/23 06:41:40;;;;;;;17.02;7.95;;;7.60;99.90;;;;;;5042164;28;20040;-85
2022/11/23 06:44:06;;;;;;;13.98;7.75;;;7.20;99.90;;;;;;5059097;28;20039;-85
2022/11/23 06:46:32;;;;;;;13.10;7.57;;;7.20;99.90;;;;;;5075187;28;20387;-85
2022/11/23 06:48:58;;;;;;;18.40;7.72;;;7.20;99.90;;;;;;5059091;28;20044;-85
2022/11/23 06:51:23;;;;;;;17.40;6.85;;;7.20;99.90;;;;;;5073544;28;20051;-82
2022/11/23 06:53:49;;;;;;;13.52;7.78;;;7.20;99.90;;;;;;5055109;28;20089;-82
2022/11/23 06:56:15;;;;;;;14.00;7.25;;;7.30;99.90;;;;;;5055589;28;20048;-81
2022/11/23 06:58:41;;;;;;;17.10;7.97;;;7.20;99.90;;;;;;5073106;28;20032;-81
2022/11/23 07:01:08;;;;;;;12.65;7.18;;;7.20;99.90;;;;;;5056831;28;20404;-81
2022/11/23 07:03:35;;;;;;;15.05;7.13;;;7.20;99.90;;;;;;5049651;28;20053;-82
2022/11/23 07:06:05;;;;;;;14.63;6.95;;;7.10;99.90;;;;;;5028192;28;20048;-82
2022/11/23 07:08:31;;;;;;;15.30;6.95;;;7.20;99.90;;;;;;5062813;28;20044;-82
2022/11/23 07:11:04;;;;;;;14.25;7.05;;;7.20;99.90;;;;;;5049425;28;20064;-82
2022/11/23 07:13:30;;;;;;;11.57;5.72;;;7.20;99.90;;;;;;5044821;28;20485;-82
2022/11/23 07:15:57;;;;;;;11.60;6.15;;;7.80;99.90;;;;;;5066975;28;20037;-82
2022/11/23 07:18:24;;;;;;;14.68;6.63;;;7.50;99.90;;;;;;5048874;28;20035;-82
2022/11/23 07:20:50;;;;;;;11.30;5.15;;;7.20;99.90;;;;;;5062438;28;20036;-82
2022/11/23 07:23:15;;;;;;;9.32;5.30;;;7.40;99.90;;;;;;5067158;28;20086;-81
2022/11/23 07:25:41;;;;;;;10.65;5.10;;;7.20;99.90;;;;;;5061858;28;20506;-81
2022/11/23 07:28:09;;;;;;;11.55;5.90;;;7.20;99.90;;;;;;5045108;28;20056;-81
2022/11/23 07:30:35;;;;;;;12.80;4.82;;;7.20;99.90;;;;;;5045239;28;20090;-81
2022/11/23 07:33:07;;;;;;;12.23;5.07;;;8.60;99.90;;;;;;5049244;28;20041;-80
2022/11/23 07:35:33;;;;;;;9.63;4.95;;;7.30;99.90;;;;;;5059669;28;20047;-80
2022/11/23 07:37:59;;;;;;;13.15;5.35;;;7.30;99.90;;;;;;5059347;28;20374;-80
2022/11/23 07:40:25;;;;;;;11.80;5.32;;;7.50;99.90;;;;;;5064350;28;20062;-79
2022/11/23 07:42:51;;;;;;;12.43;5.40;;;7.40;99.90;;;;;;5071735;28;20044;-79
2022/11/23 07:45:17;;;;;;;8.15;4.80;;;7.40;99.90;;;;;;5060738;28;20045;-79
2022/11/23 07:47:42;;;;;;;12.13;4.88;;;7.40;99.90;;;;;;5071506;28;20499;-79
2022/11/23 07:50:10;;;;;;;10.70;5.47;;;7.50;99.90;;;;;;5074288;28;20040;-79
2022/11/23 07:52:36;;;;;;;10.95;5.10;;;8.10;99.90;;;;;;5067656;28;20112;-80
2022/11/23 07:55:03;;;;;;;11.25;5.70;;;7.50;99.90;;;;;;5074737;28;20049;-79
2022/11/23 07:57:29;;;;;;;10.43;4.53;;;8.40;99.90;;;;;;5062860;28;20041;-85
2022/11/23 07:59:54;;;;;;;8.85;4.75;;;7.50;99.90;;;;;;5038781;28;20362;-85
2022/11/23 08:02:20;;;;;;;15.52;5.60;;;7.50;99.90;;;;;;5067242;28;20043;-84
2022/11/23 08:04:46;;;;;;;9.05;5.05;;;7.50;99.90;;;;;;5044247;28;20061;-85
2022/11/23 08:07:12;;;;;;;10.68;5.30;;;7.50;99.90;;;;;;5075059;28;20047;-85
2022/11/23 08:09:40;;;;;;;9.55;4.32;;;8.50;99.90;;;;;;5063056;28;20408;-84
2022/11/23 08:12:06;;;;;;;10.30;5.25;;;7.50;99.90;;;;;;5064316;28;20128;-84
2022/11/23 08:14:32;;;;;;;15.55;4.80;;;7.50;99.90;;;;;;5038245;28;20091;-84
2022/11/23 08:16:58;;;;;;;13.10;5.40;;;7.50;99.90;;;;;;5057504;28;20047;-84
2022/11/23 08:19:23;;;;;;;8.60;4.50;;;7.60;99.90;;;;;;5071814;23;20055;-82
2022/11/23 08:21:49;;;;;;;11.52;4.45;;;8.40;99.90;;;;;;5074628;28;20051;-82
2022/11/23 08:24:15;;;;;;;13.05;4.65;;;7.60;99.90;;;;;;5037736;28;20041;-82
2022/11/23 08:26:40;;;;;;;10.40;4.30;;;7.60;99.90;;;;;;5049549;28;20072;-82
2022/11/23 08:29:06;;;;;;;10.52;4.72;;;8.50;99.90;;;;;;5061259;28;20055;-82
2022/11/23 08:31:32;;;;;;;10.30;4.85;;;7.70;99.90;;;;;;5077468;28;20086;-85
2022/11/23 08:33:58;;;;;;;8.38;4.22;;;8.60;99.90;;;;;;5054565;28;20029;-85
2022/11/23 08:36:24;;;;;;;9.25;4.57;;;7.80;99.90;;;;;;5063577;28;20032;-85
2022/11/23 08:38:50;;;;;;;7.90;3.63;;;7.80;99.90;;;;;;5088575;28;20044;-85
2022/11/23 08:41:19;;;;;;;12.30;4.22;;;7.90;99.90;;;;;;5080768;28;20044;-85
2022/11/23 08:43:46;;;;;;;10.48;4.45;;;8.00;99.90;;;;;;5038299;28;20045;-85
2022/11/23 08:46:11;;;;;;;11.52;3.75;;;8.10;99.90;;;;;;5065273;28;20396;-85
2022/11/23 08:48:37;;;;;;;10.75;3.90;;;8.10;99.90;;;;;;5057082;28;20047;-85
2022/11/23 08:51:03;;;;;;;10.60;4.22;;;8.20;99.90;;;;;;5035929;28;20098;-85
2022/11/23 08:53:29;;;;;;;10.68;4.18;;;8.20;99.90;;;;;;5068604;28;20040;-86
2022/11/23 08:55:54;;;;;;;11.63;4.35;;;8.30;99.90;;;;;;5040344;28;20124;-85
2022/11/23 08:58:20;;;;;;;11.60;3.67;;;8.90;99.90;;;;;;5060545;28;20043;-85
2022/11/23 09:00:46;;;;;;;12.15;4.38;;;8.70;99.90;;;;;;5060553;28;20028;-85
2022/11/23 09:03:11;;;;;;;6.25;3.58;;;8.90;99.90;;;;;;5057062;28;20430;-86
2022/11/23 09:05:38;;;;;;;9.85;3.65;;;9.00;99.90;;;;;;5056688;28;20040;-85
2022/11/23 09:08:04;;;;;;;10.27;3.85;;;9.60;99.90;;;;;;5057452;28;20041;-86
2022/11/23 09:10:29;;;;;;;9.02;3.30;;;8.90;99.90;;;;;;5039321;28;20097;-85
2022/11/23 09:12:55;;;;;;;12.88;3.78;;;8.80;99.90;;;;;;5055660;28;20037;-85
2022/11/23 09:15:21;;;;;;;6.78;3.00;;;8.90;99.90;;;;;;5060563;28;20507;-85
2022/11/23 09:17:46;;;;;;;7.95;3.20;;;8.70;99.90;;;;;;5056751;28;20044;-86
2022/11/23 09:20:12;;;;;;;8.32;3.45;;;8.70;99.90;;;;;;5073292;28;20467;-86
2022/11/23 09:22:38;;;;;;;8.77;3.15;;;8.70;99.90;;;;;;5065480;28;20133;-85
2022/11/23 09:25:05;;;;;;;6.40;2.60;;;9.50;99.90;;;;;;5076686;28;20130;-85
2022/11/23 09:27:31;;;;;;;9.35;2.53;;;8.80;99.90;;;;;;5070467;28;20048;-85
2022/11/23 09:29:57;;;;;;;9.65;3.03;;;8.90;99.90;;;;;;5073553;28;20404;-85
2022/11/23 09:32:23;;;;;;;5.25;2.78;;;8.80;99.90;;;;;;5058435;28;20045;-85
2022/11/23 09:34:49;;;;;;;6.53;2.70;;;8.80;99.90;;;;;;5090688;28;20051;-85
2022/11/23 09:37:15;;;;;;;6.70;2.55;;;8.80;99.90;;;;;;5074938;28;20123;-84
2022/11/23 09:39:40;;;;;;;8.15;3.05;;;8.80;99.90;;;;;;5073286;28;20050;-84
2022/11/23 09:42:30;;;;;;;8.75;2.90;;;8.80;99.90;;;;;;5059540;28;20110;-84
2022/11/23 09:45:20;;;;;;;9.20;3.03;;;8.90;99.90;;;;;;5059836;28;20033;-84
2022/11/23 09:48:24;;;;;;;10.90;2.80;;;8.90;99.90;;;;;;5093365;28;20055;-84
2022/11/23 09:50:59;;;;;;;7.65;2.60;;;8.90;99.90;;;;;;4964369;28;20495;-84
2022/11/23 09:53:40;;;;;;;7.80;3.88;;;10.20;99.90;;;;;;5038917;28;20059;-84
2022/11/23 09:56:26;;;;;;;9.35;2.63;;;8.90;99.90;;;;;;5053325;28;20045;-84
2022/11/23 09:58:59;;;;;;;6.32;2.90;;;8.90;99.90;;;;;;5086872;28;20039;-85
2022/11/23 10:01:29;;;;;;;9.43;2.58;;;8.80;99.90;;;;;;5072748;28;20534;-84
2022/11/23 10:03:55;;;;;;;8.40;2.88;;;9.10;99.90;;;;;;5056177;28;20033;-85
2022/11/23 10:06:30;;;;;;;7.45;2.40;;;9.00;99.90;;;;;;5056864;28;20028;-84
2022/11/23 10:09:16;;;;;;;5.05;2.90;;;8.80;99.90;;;;;;5056074;28;20131;-84
2022/11/23 10:11:58;;;;;;;14.43;2.90;;;8.80;99.90;;;;;;5056340;28;20044;-84
2022/11/23 10:14:43;;;;;;;8.90;2.60;;;8.80;99.90;;;;;;5072631;28;20043;-84
2022/11/23 10:17:12;;;;;;;9.25;2.60;;;8.80;99.90;;;;;;5070321;28;20047;-84
2022/11/23 10:20:15;;;;;;;9.93;2.38;;;8.80;99.90;;;;;;5074085;28;20048;-84
2022/11/23 10:23:01;;;;;;;9.75;2.42;;;8.80;99.90;;;;;;5072615;28;20047;-84
2022/11/23 10:25:32;;;;;;;7.40;2.33;;;8.80;99.90;;;;;;5072563;28;20626;-85
2022/11/23 10:28:05;;;;;;;7.88;2.33;;;8.90;99.90;;;;;;5072715;28;20044;-84
2022/11/23 10:30:31;;;;;;;9.27;3.00;;;8.90;99.90;;;;;;5056704;28;20050;-84
2022/11/23 10:33:20;;;;;;;6.22;2.30;;;9.10;99.90;;;;;;5085988;28;20040;-84
2022/11/23 10:35:46;;;;;;;8.55;2.60;;;9.00;99.90;;;;;;5092173;28;20466;-84
2022/11/23 10:38:13;;;;;;;11.85;2.65;;;9.00;99.90;;;;;;5055587;28;20119;-84
2022/11/23 10:40:44;;;;;;;7.95;3.63;;;9.10;99.90;;;;;;5055985;28;20173;-84
2022/11/23 10:43:19;;;;;;;9.75;2.83;;;9.20;99.90;;;;;;5055650;28;20491;-84
2022/11/23 10:45:47;;;;;;;7.22;2.30;;;10.60;99.90;;;;;;5055523;28;20525;-84
2022/11/23 10:48:33;;;;;;;5.90;2.38;;;9.30;99.90;;;;;;5074209;28;20048;-84
2022/11/23 10:51:15;;;;;;;9.67;2.43;;;9.50;99.90;;;;;;5092581;28;20044;-85
2022/11/23 10:53:42;;;;;;;8.43;2.88;;;9.60;99.90;;;;;;5092508;28;20282;-84
2022/11/23 10:56:12;;;;;;;8.95;2.40;;;10.00;99.90;;;;;;5092538;28;20051;-85
2022/11/23 10:58:45;;;;;;;5.47;2.15;;;10.60;99.90;;;;;;5087035;28;20052;-85
2022/11/23 11:01:23;;;;;;;10.10;2.47;;;10.80;99.90;;;;;;5087879;28;20089;-83
2022/11/23 11:03:53;;;;;;;7.28;2.50;;;12.00;99.90;;;;;;5068633;28;20086;-82
2022/11/23 11:06:29;;;;;;;6.10;2.00;;;12.00;99.90;;;;;;5071999;28;20044;-82
2022/11/23 11:08:57;;;;;;;5.35;2.22;;;11.80;99.90;;;;;;5069577;28;20047;-82
2022/11/23 11:11:23;;;;;;;6.60;2.40;;;12.20;99.90;;;;;;5077900;28;20058;-83
2022/11/23 11:13:48;;;;;;;7.05;2.13;;;12.50;99.90;;;;;;5068733;28;20449;-83
2022/11/23 11:16:26;;;;;;;5.03;1.90;;;12.70;99.90;;;;;;5045412;28;20127;-83
2022/11/23 11:18:52;;;;;;;5.40;2.53;;;12.70;99.90;;;;;;5079269;28;20064;-84
2022/11/23 11:21:21;;;;;;;7.10;2.53;;;12.80;99.90;;;;;;5093308;28;20553;-84
2022/11/23 11:23:53;;;;;;;4.03;1.55;;;12.50;99.90;;;;;;5064247;28;20040;-84
2022/11/23 11:26:23;;;;;;;9.52;1.88;;;12.10;99.90;;;;;;5082540;28;20029;-84
2022/11/23 11:28:52;;;;;;;4.97;1.63;;;12.00;99.90;;;;;;5075721;28;20040;-84
2022/11/23 11:31:23;;;;;;;5.82;1.90;;;12.10;99.90;;;;;;5058870;28;20040;-84
2022/11/23 11:33:57;;;;;;;6.32;1.88;;;12.00;99.90;;;;;;5075450;28;20430;-85
2022/11/23 11:36:27;;;;;;;8.98;1.95;;;12.00;99.90;;;;;;5075680;28;20464;-85
2022/11/23 11:38:55;;;;;;;6.97;2.17;;;12.00;99.90;;;;;;5075892;28;20041;-85
2022/11/23 11:41:24;;;;;;;6.72;1.83;;;11.60;99.90;;;;;;5074786;28;20032;-85
2022/11/23 11:43:58;;;;;;;6.50;1.80;;;11.40;99.90;;;;;;5039137;28;20071;-85
2022/11/23 11:46:33;;;;;;;7.13;1.70;;;11.30;99.90;;;;;;5055391;28;20041;-85
2022/11/23 11:49:06;;;;;;;12.05;2.28;;;10.90;99.90;;;;;;5055254;28;20382;-85
2022/11/23 11:51:45;;;;;;;5.93;1.60;;;10.70;99.90;;;;;;5069420;28;20044;-85
2022/11/23 11:54:20;;;;;;;6.32;1.90;;;10.60;99.90;;;;;;5083626;28;20035;-83
2022/11/23 11:56:49;;;;;;;8.68;1.83;;;10.50;99.90;;;;;;5075670;28;20045;-84
2022/11/23 11:59:32;;;;;;;6.55;2.03;;;10.40;99.90;;;;;;5075046;28;20039;-83
2022/11/23 12:02:16;;;;;;;8.48;1.40;;;10.50;99.90;;;;;;5058007;28;20041;-84
2022/11/23 12:05:06;;;;;;;7.65;1.42;;;10.60;99.90;;;;;;5038278;28;20037;-83
2022/11/23 12:07:37;;;;;;;5.55;1.20;;;10.50;99.90;;;;;;5078355;28;20043;-82
2022/11/23 12:10:14;;;;;;;10.85;1.50;;;10.40;99.90;;;;;;5074905;28;20102;-82
2022/11/23 12:12:40;;;;;;;6.85;1.60;;;10.40;99.90;;;;;;5058296;28;20094;-82
2022/11/23 12:15:15;;;;;;;4.78;1.48;;;10.40;99.90;;;;;;5058214;28;20037;-82
2022/11/23 12:18:27;;;;;;;5.18;1.98;;;10.40;99.90;;;;;;5074563;28;20052;-82
2022/11/23 12:21:02;;;;;;;6.50;1.65;;;10.30;99.90;;;;;;4981509;28;20045;-82
2022/11/23 12:23:48;;;;;;;10.40;1.83;;;10.30;99.90;;;;;;5074249;28;20040;-85
2022/11/23 12:26:16;;;;;;;5.47;1.50;;;10.30;99.90;;;;;;5077233;28;20066;-84
2022/11/23 12:28:50;;;;;;;3.78;1.20;;;10.40;99.90;;;;;;5081655;28;20097;-85
2022/11/23 12:31:53;;;;;;;5.88;2.65;;;10.40;99.90;;;;;;5094554;28;20039;-85
2022/11/23 12:34:24;;;;;;;2.60;1.17;;;10.50;99.90;;;;;;5070673;28;20048;-85
2022/11/23 12:36:50;;;;;;;4.10;1.40;;;10.50;99.90;;;;;;5057268;28;20043;-85
2022/11/23 12:39:21;;;;;;;5.80;1.45;;;10.50;99.90;;;;;;5057583;28;20041;-85
2022/11/23 12:41:55;;;;;;;8.05;1.80;;;10.70;99.90;;;;;;5074050;28;20044;-82
2022/11/23 12:44:33;;;;;;;12.35;1.70;;;10.50;99.90;;;;;;5064149;28;20040;-82
2022/11/23 12:47:23;;;;;;;2.83;1.35;;;10.50;99.90;;;;;;5065422;28;20123;-82
2022/11/23 12:50:25;;;;;;;8.55;1.83;;;10.50;99.90;;;;;;5060922;28;20037;-82
2022/11/23 12:53:09;;;;;;;7.80;1.30;;;10.40;99.90;;;;;;5057271;28;20044;-82
2022/11/23 12:56:16;;;;;;;6.00;1.48;;;10.40;99.90;;;;;;5073750;28;20511;-82
2022/11/23 12:58:44;;;;;;;8.43;1.30;;;10.40;99.90;;;;;;5057260;28;20093;-84